Time;durP1;ratioP1;P1;durP2;ratioP2;P2;SDS_P1;SDS_P2;PMS_P1;PMS_P2;Temp;Humidity;BMP_temperature;BMP_pressure;BME280_temperature;BME280_humidity;BME280_pressure;Samples;Min_cycle;Max_cycle;Signal;HPM_P1;HPM_P2
2024/04/22 00:00:17;;;;;;;3.70;3.00;;;;;;;-141.84;68.49;18795.75;5449891;26;20354;-59
2024/04/22 00:02:47;;;;;;;4.80;3.50;;;;;;;-141.84;69.55;18830.31;5450838;26;20276;-59
2024/04/22 00:05:20;;;;;;;4.10;3.30;;;;;;;-141.84;69.87;18822.19;5452829;26;20283;-60
2024/04/22 00:07:52;;;;;;;5.03;3.43;;;;;;;-141.84;68.51;18797.78;5433081;26;20254;-59
2024/04/22 00:10:25;;;;;;;3.10;2.80;;;;;;;-141.84;69.39;18805.91;5451820;26;20253;-58
2024/04/22 00:12:55;;;;;;;3.20;2.87;;;;;;;-141.84;71.15;18830.31;5445679;26;20245;-60
2024/04/22 00:15:27;;;;;;;3.53;2.90;;;;;;;-141.84;70.48;18850.63;5449955;26;20255;-59
2024/04/22 00:17:56;;;;;;;4.13;3.10;;;;;;;-141.84;67.68;18822.19;5450706;26;20326;-58
2024/04/22 00:20:28;;;;;;;3.60;3.23;;;;;;;-141.84;67.58;18775.44;5447697;26;20769;-59
2024/04/22 00:23:00;;;;;;;5.07;3.03;;;;;;;-141.84;65.58;18838.44;5448967;26;20683;-59
2024/04/22 00:25:31;;;;;;;3.97;3.37;;;;;;;-141.84;65.70;18826.25;5451354;26;20230;-59
2024/04/22 00:28:00;;;;;;;3.77;2.80;;;;;;;-141.84;66.61;18795.75;5450826;26;20669;-59
2024/04/22 00:30:31;;;;;;;4.07;2.90;;;;;;;-141.84;66.27;18830.31;5449230;26;20297;-59
2024/04/22 00:33:00;;;;;;;4.80;3.33;;;;;;;-141.84;65.97;18803.88;5450420;26;20325;-59
2024/04/22 00:35:32;;;;;;;3.50;3.20;;;;;;;-141.84;66.17;18809.97;5445902;26;20261;-61
2024/04/22 00:38:03;;;;;;;4.03;3.20;;;;;;;-141.84;65.54;18846.56;5442153;26;20294;-59
2024/04/22 00:40:36;;;;;;;4.20;2.90;;;;;;;-141.84;63.75;18854.69;5445587;26;20274;-60
2024/04/22 00:43:07;;;;;;;3.80;2.90;;;;;;;-141.84;64.17;18814.03;5450634;26;20343;-60
2024/04/22 00:45:38;;;;;;;3.90;2.47;;;;;;;-141.84;63.47;18828.28;5449790;26;20302;-60
2024/04/22 00:48:08;;;;;;;3.80;2.93;;;;;;;-141.84;64.30;18836.41;5449637;26;20246;-59
2024/04/22 00:50:39;;;;;;;3.57;2.77;;;;;;;-141.84;65.42;18850.63;5435903;26;20699;-60
2024/04/22 00:53:12;;;;;;;3.03;2.70;;;;;;;-141.84;65.03;18832.34;5438318;26;20244;-60
2024/04/22 00:55:45;;;;;;;3.97;2.97;;;;;;;-141.84;64.15;18864.84;5438352;26;20266;-59
2024/04/22 00:58:15;;;;;;;4.20;3.00;;;;;;;-141.84;65.00;18836.41;5451394;26;20224;-59
2024/04/22 01:00:50;;;;;;;4.03;3.17;;;;;;;-141.84;65.85;18856.72;5449984;26;20350;-60
2024/04/22 01:03:18;;;;;;;5.67;3.27;;;;;;;-141.84;64.71;18893.28;5437442;26;20297;-60
2024/04/22 01:05:50;;;;;;;3.90;2.30;;;;;;;-141.84;64.38;18846.56;5453413;26;20256;-60
2024/04/22 01:08:22;;;;;;;4.43;3.20;;;;;;;-141.84;64.29;18838.44;5449921;26;20260;-63
2024/04/22 01:10:53;;;;;;;4.60;2.67;;;;;;;-141.84;63.68;18881.09;5443432;26;20236;-60
2024/04/22 01:13:22;;;;;;;3.20;2.90;;;;;;;-141.84;63.36;18850.63;5451164;26;20682;-60
2024/04/22 01:15:53;;;;;;;3.90;2.50;;;;;;;-141.84;62.77;18834.38;5436460;26;20264;-60
2024/04/22 01:18:22;;;;;;;3.03;2.43;;;;;;;-141.84;63.65;18883.13;5412253;26;20240;-58
2024/04/22 01:20:54;;;;;;;4.70;2.97;;;;;;;-141.84;64.46;18830.31;5448194;26;20609;-58
2024/04/22 01:23:26;;;;;;;2.57;2.37;;;;;;;-141.84;62.65;18858.75;5445788;26;20257;-59
2024/04/22 01:26:00;;;;;;;4.63;2.70;;;;;;;-141.84;59.65;18881.09;5419908;26;20356;-59
2024/04/22 01:28:29;;;;;;;3.43;2.70;;;;;;;-141.84;60.97;18842.50;5415734;26;20226;-62
2024/04/22 01:31:00;;;;;;;4.23;2.67;;;;;;;-141.84;62.07;18893.28;5414727;26;20282;-59
2024/04/22 01:33:29;;;;;;;3.10;2.70;;;;;;;-141.84;61.71;18844.53;5413740;26;20295;-59
2024/04/22 01:36:00;;;;;;;4.13;2.50;;;;;;;-141.84;60.28;18832.34;5413629;26;20363;-58
2024/04/22 01:38:31;;;;;;;3.90;2.50;;;;;;;-141.84;59.86;18866.88;5422896;26;20668;-60
2024/04/22 01:41:02;;;;;;;4.80;2.40;;;;;;;-141.84;60.68;18862.81;5424557;26;20259;-58
2024/04/22 01:43:31;;;;;;;2.80;2.43;;;;;;;-141.84;60.85;18803.88;5400604;26;20232;-61
2024/04/22 01:46:05;;;;;;;3.90;2.30;;;;;;;-141.84;60.80;18854.69;5436691;26;20404;-59
2024/04/22 01:48:34;;;;;;;4.20;2.50;;;;;;;-141.84;61.79;18838.44;5387699;26;20309;-59
2024/04/22 01:51:06;;;;;;;3.43;2.20;;;;;;;-141.84;59.59;18834.38;5423733;26;20356;-59
2024/04/22 01:53:37;;;;;;;3.50;2.40;;;;;;;-141.84;58.37;18781.53;5412411;26;20252;-59
2024/04/22 01:56:10;;;;;;;2.70;2.30;;;;;;;-141.84;60.22;18858.75;5423966;26;20331;-59
2024/04/22 01:58:38;;;;;;;3.27;2.43;;;;;;;-141.84;59.67;18858.75;5420135;26;20330;-59
2024/04/22 02:01:12;;;;;;;3.20;1.90;;;;;;;-141.84;59.88;18822.19;5440331;26;20274;-59
2024/04/22 02:04:22;;;;;;;2.43;2.10;;;;;;;-141.84;59.17;18901.41;5405817;26;20857;-59
2024/04/22 02:07:36;;;;;;;4.90;2.10;;;;;;;-141.84;57.58;18842.50;5412104;26;20252;-60
2024/04/22 02:10:29;;;;;;;3.13;2.17;;;;;;;-141.84;58.76;18889.22;5414728;26;20296;-59
2024/04/22 02:13:45;;;;;;;2.40;1.83;;;;;;;-141.84;56.32;18870.94;5405560;26;20310;-60
2024/04/22 02:16:41;;;;;;;4.90;1.80;;;;;;;-141.84;56.63;18834.38;5383729;26;20344;-60
2024/04/22 02:19:35;;;;;;;3.07;2.20;;;;;;;-141.84;56.85;18877.03;5416890;26;20269;-59
2024/04/22 02:22:05;;;;;;;3.20;1.90;;;;;;;-141.84;57.16;18881.09;5413498;26;20259;-59
2024/04/22 02:24:36;;;;;;;2.27;1.50;;;;;;;-141.84;56.18;18856.72;5414634;26;20563;-59
2024/04/22 02:27:07;;;;;;;2.73;2.07;;;;;;;-141.84;56.55;18881.09;5399942;26;20255;-60
2024/04/22 02:29:38;;;;;;;2.90;1.77;;;;;;;-141.84;58.54;18862.81;5427841;26;20353;-59
2024/04/22 02:32:06;;;;;;;3.30;1.80;;;;;;;-141.84;57.36;18860.78;5427012;26;20324;-60
2024/04/22 02:34:36;;;;;;;2.10;1.90;;;;;;;-141.84;56.44;18854.69;5411863;26;20303;-60
2024/04/22 02:37:06;;;;;;;4.60;2.07;;;;;;;-141.84;55.81;18868.91;5436605;26;20242;-59
2024/04/22 02:39:37;;;;;;;4.83;2.20;;;;;;;-141.84;56.16;18848.59;5304997;26;20329;-59
2024/04/22 02:42:08;;;;;;;2.67;1.90;;;;;;;-141.84;56.49;18832.34;5297814;26;20296;-59
2024/04/22 02:44:39;;;;;;;3.50;2.10;;;;;;;-141.84;56.17;18854.69;5298699;26;20258;-59
2024/04/22 02:47:08;;;;;;;2.70;1.80;;;;;;;-141.84;57.92;18824.22;5303490;26;20955;-59
2024/04/22 02:49:39;;;;;;;2.03;1.83;;;;;;;-141.84;57.54;18824.22;5315358;26;20245;-60
2024/04/22 02:52:07;;;;;;;2.77;1.63;;;;;;;-141.84;56.87;18848.59;5326179;26;20684;-59
2024/04/22 02:54:37;;;;;;;2.97;2.07;;;;;;;-141.84;58.21;18805.91;5322103;26;20698;-59
2024/04/22 02:57:09;;;;;;;2.27;2.00;;;;;;;-141.84;58.37;18812.00;5310792;26;20906;-59
2024/04/22 02:59:39;;;;;;;2.47;1.80;;;;;;;-141.84;59.71;18787.63;5317710;26;20285;-59
2024/04/22 03:02:07;;;;;;;1.83;1.70;;;;;;;-141.84;58.29;18824.22;5310209;26;20706;-59
2024/04/22 03:04:37;;;;;;;2.93;1.90;;;;;;;-141.84;58.90;18807.94;5309400;26;20233;-60
2024/04/22 03:07:08;;;;;;;2.10;1.90;;;;;;;-141.84;58.58;18834.38;5324312;26;20640;-59
2024/04/22 03:09:42;;;;;;;3.10;1.90;;;;;;;-141.84;58.99;18793.72;5314663;26;20366;-60
2024/04/22 03:12:14;;;;;;;2.37;1.67;;;;;;;-141.84;58.24;18828.28;5314818;26;20252;-58
2024/04/22 03:14:44;;;;;;;3.10;1.80;;;;;;;-141.84;57.50;18803.88;5296563;26;20296;-59
2024/04/22 03:17:12;;;;;;;5.33;2.07;;;;;;;-141.84;57.68;18816.06;5356477;26;20259;-59
2024/04/22 03:19:43;;;;;;;2.20;1.90;;;;;;;-141.84;58.14;18807.94;5412897;26;20223;-59
2024/04/22 03:22:11;;;;;;;3.23;1.77;;;;;;;-141.84;57.55;18809.97;5441052;26;20218;-59
2024/04/22 03:24:42;;;;;;;3.00;1.77;;;;;;;-141.84;58.56;18826.25;5426096;26;20255;-59
2024/04/22 03:27:13;;;;;;;2.77;1.67;;;;;;;-141.84;59.64;18801.84;5425182;26;20657;-59
2024/04/22 03:30:03;;;;;;;3.43;2.77;;;;;;;-141.84;59.14;18812.00;5408574;26;20327;-58
2024/04/22 03:32:34;;;;;;;2.80;1.70;;;;;;;-141.84;58.14;18777.47;5417988;26;20335;-58
2024/04/22 03:35:05;;;;;;;2.10;1.67;;;;;;;-141.84;58.35;18820.16;5423232;26;20776;-59
2024/04/22 03:37:36;;;;;;;2.60;2.10;;;;;;;-141.84;57.31;18834.38;5434715;26;20694;-59
2024/04/22 03:40:08;;;;;;;4.00;1.90;;;;;;;-141.84;57.89;18828.28;5447925;26;20234;-59
2024/04/22 03:42:42;;;;;;;2.40;1.60;;;;;;;-141.84;57.48;18818.09;5416966;26;20253;-59
2024/04/22 03:45:12;;;;;;;2.93;1.63;;;;;;;-141.84;57.41;18838.44;5431802;26;20258;-60
2024/04/22 03:50:29;;;;;;;3.00;2.03;;;;;;;-141.84;57.12;18797.78;5409447;26;20301;-60
2024/04/22 03:53:00;;;;;;;2.47;1.73;;;;;;;-141.84;58.54;18787.63;5415302;26;20254;-60
2024/04/22 03:55:33;;;;;;;1.93;1.60;;;;;;;-141.84;57.73;18826.25;5425335;26;20654;-60
2024/04/22 03:58:09;;;;;;;3.57;2.00;;;;;;;-141.84;57.83;18818.09;5426199;26;20247;-59
2024/04/22 04:00:39;;;;;;;3.40;1.80;;;;;;;-141.84;57.62;18803.88;5430745;26;20249;-59
2024/04/22 04:03:08;;;;;;;2.87;1.90;;;;;;;-141.84;58.40;18820.16;5420817;26;20854;-59
2024/04/22 04:05:40;;;;;;;3.17;2.37;;;;;;;-141.84;58.25;18814.03;5415009;26;20331;-59
2024/04/22 04:08:08;;;;;;;3.23;2.40;;;;;;;-141.84;58.41;18781.53;5415813;26;20265;-59
2024/04/22 04:10:39;;;;;;;3.73;2.27;;;;;;;-141.84;58.07;18785.59;5420440;26;20227;-59
2024/04/22 04:13:11;;;;;;;2.40;2.20;;;;;;;-141.84;59.74;18742.94;5427672;26;20234;-58
2024/04/22 04:15:42;;;;;;;3.40;2.10;;;;;;;-141.84;60.58;18765.28;5417149;26;20335;-59
2024/04/22 04:18:11;;;;;;;2.67;2.23;;;;;;;-141.84;60.41;18757.16;5416787;26;20305;-60
2024/04/22 04:20:42;;;;;;;4.30;2.20;;;;;;;-141.84;60.68;18799.81;5435371;26;20244;-59
2024/04/22 04:23:11;;;;;;;3.93;2.17;;;;;;;-141.84;59.10;18789.66;5425751;26;20285;-59
2024/04/22 04:25:44;;;;;;;2.20;2.00;;;;;;;-141.84;57.86;18805.91;5440689;26;20234;-59
2024/04/22 04:28:17;;;;;;;3.67;2.30;;;;;;;-141.84;57.51;18809.97;5442089;26;20277;-59
2024/04/22 04:30:56;;;;;;;3.13;2.23;;;;;;;-141.84;57.72;18838.44;5448831;26;20262;-59
2024/04/22 04:33:24;;;;;;;3.03;2.00;;;;;;;-141.84;57.95;18862.81;5452115;26;20898;-59
2024/04/22 04:36:00;;;;;;;3.67;2.10;;;;;;;-141.84;57.22;18856.72;5449179;26;20316;-59
2024/04/22 04:38:29;;;;;;;2.20;2.00;;;;;;;-141.84;56.62;18834.38;5451282;26;20253;-59
2024/04/22 04:40:59;;;;;;;2.43;2.00;;;;;;;-141.84;57.26;18848.59;5451894;26;20253;-59
2024/04/22 04:43:30;;;;;;;3.47;2.10;;;;;;;-141.84;57.85;18820.16;5452232;26;20726;-60
2024/04/22 04:46:01;;;;;;;2.83;2.40;;;;;;;-141.84;57.48;18793.72;5452692;26;20230;-59
2024/04/22 04:48:28;;;;;;;2.67;2.20;;;;;;;-141.84;59.15;18822.19;5452887;26;20250;-59
2024/04/22 04:50:59;;;;;;;3.53;2.17;;;;;;;-141.84;60.18;18816.06;5452144;26;20253;-59
2024/04/22 04:53:31;;;;;;;2.47;2.03;;;;;;;-141.84;59.99;18805.91;5451836;26;20258;-60
2024/04/22 04:56:01;;;;;;;3.23;2.17;;;;;;;-141.84;59.01;18805.91;5451310;26;20250;-59
2024/04/22 04:58:31;;;;;;;5.23;2.47;;;;;;;-141.84;58.55;18830.31;5452260;26;20333;-59
2024/04/22 05:01:02;;;;;;;2.60;2.23;;;;;;;-141.84;58.38;18848.59;5438269;26;20222;-61
2024/04/22 05:03:29;;;;;;;2.73;2.10;;;;;;;-141.84;57.43;18842.50;5451666;26;20262;-59
2024/04/22 05:06:01;;;;;;;4.20;1.97;;;;;;;-141.84;56.91;18838.44;5451084;26;20648;-59
2024/04/22 05:08:29;;;;;;;3.60;2.23;;;;;;;-141.84;56.35;18820.16;5452356;26;20300;-59
2024/04/22 05:10:59;;;;;;;2.63;2.20;;;;;;;-141.84;55.94;18854.69;5450927;26;20262;-59
2024/04/22 05:13:32;;;;;;;3.10;1.97;;;;;;;-141.84;57.03;18848.59;5451758;26;20908;-60
2024/04/22 05:16:02;;;;;;;5.37;2.23;;;;;;;-141.84;55.89;18891.25;5452055;26;20248;-59
2024/04/22 05:18:31;;;;;;;2.20;2.00;;;;;;;-141.84;54.64;18875.00;5451187;26;20249;-59
2024/04/22 05:21:02;;;;;;;3.07;2.23;;;;;;;-141.84;55.02;18875.00;5452103;26;20261;-59
2024/04/22 05:23:29;;;;;;;3.57;2.40;;;;;;;-141.84;53.99;18903.44;5455323;26;20250;-59
2024/04/22 05:26:00;;;;;;;3.40;2.00;;;;;;;-141.84;53.39;18868.91;5450109;26;20261;-59
2024/04/22 05:28:32;;;;;;;2.77;2.10;;;;;;;-141.84;53.31;18899.38;5456036;26;20268;-62
2024/04/22 05:31:03;;;;;;;2.80;2.30;;;;;;;-141.84;52.99;18881.09;5450135;26;20234;-59
2024/04/22 05:36:19;;;;;;;2.50;2.00;;;;;;;-141.84;53.10;18893.28;5456908;26;20257;-62
2024/04/22 05:38:50;;;;;;;3.30;2.43;;;;;;;-141.84;53.46;18903.44;5435807;26;20867;-60
2024/04/22 05:41:20;;;;;;;3.70;2.13;;;;;;;-141.84;52.92;18915.63;5449265;26;20257;-60
2024/04/22 05:43:54;;;;;;;2.63;2.03;;;;;;;-141.84;53.72;18885.16;5450264;26;20634;-59
2024/04/22 05:46:22;;;;;;;2.60;2.07;;;;;;;-141.84;54.15;18883.13;5467179;26;20273;-60
2024/04/22 05:48:52;;;;;;;2.90;2.20;;;;;;;-141.84;53.73;18909.53;5456639;26;20347;-59
2024/04/22 05:51:20;;;;;;;4.33;2.30;;;;;;;-141.84;53.91;18870.94;5450016;26;20263;-60
2024/04/22 05:53:51;;;;;;;4.60;2.80;;;;;;;-141.84;54.13;18877.03;5450615;26;20249;-59
2024/04/22 05:56:18;;;;;;;3.57;2.47;;;;;;;-141.84;53.71;18868.91;5450768;26;20284;-59
2024/04/22 05:58:51;;;;;;;2.63;2.23;;;;;;;-141.84;53.42;18907.50;5450786;26;20595;-59
2024/04/22 06:01:22;;;;;;;3.13;2.17;;;;;;;-141.84;52.20;18913.59;5451566;26;20270;-60
2024/04/22 06:03:52;;;;;;;2.00;1.80;;;;;;;-141.84;52.03;18887.19;5454448;26;20256;-61
2024/04/22 06:06:20;;;;;;;3.10;2.07;;;;;;;-141.84;51.90;18946.13;5461132;26;20327;-59
2024/04/22 06:08:51;;;;;;;3.20;2.30;;;;;;;-141.84;51.78;18933.94;5452955;26;20249;-59
2024/04/22 06:11:21;;;;;;;2.50;2.30;;;;;;;-141.84;51.65;18927.84;5451976;26;20308;-60
2024/04/22 06:13:49;;;;;;;2.80;2.27;;;;;;;-141.84;51.19;18917.66;5448620;26;20259;-59
2024/04/22 06:16:19;;;;;;;2.90;2.20;;;;;;;-141.84;50.74;18948.16;5452333;26;20224;-59
2024/04/22 06:18:50;;;;;;;2.80;2.00;;;;;;;-141.84;50.84;18948.16;5449790;26;20766;-60
2024/04/22 06:21:21;;;;;;;2.73;2.03;;;;;;;-141.84;50.23;18988.78;5449980;26;20294;-59
2024/04/22 06:23:49;;;;;;;3.00;2.00;;;;;;;-141.84;49.87;18970.50;5447752;26;20260;-61
2024/04/22 06:26:19;;;;;;;3.47;2.10;;;;;;;-141.84;50.15;18940.03;5429487;26;20279;-58
2024/04/22 06:28:49;;;;;;;2.30;2.10;;;;;;;-141.84;50.86;18946.13;5416780;26;20302;-61
2024/04/22 06:31:20;;;;;;;3.50;2.33;;;;;;;-141.84;50.98;18933.94;5440727;26;20236;-60
2024/04/22 06:33:51;;;;;;;3.23;2.10;;;;;;;-141.84;51.40;18978.63;5426141;26;20286;-59
2024/04/22 06:36:22;;;;;;;3.23;2.33;;;;;;;-141.84;50.73;18968.47;5425943;26;20258;-60
2024/04/22 06:38:49;;;;;;;5.00;2.40;;;;;;;-141.84;51.75;18968.47;5412335;26;20260;-59
2024/04/22 06:41:20;;;;;;;3.30;2.17;;;;;;;-141.84;50.75;18972.53;5418815;26;20716;-60
2024/04/22 06:43:48;;;;;;;2.73;2.10;;;;;;;-141.84;50.80;18960.34;5428235;26;20259;-59
2024/04/22 06:46:20;;;;;;;3.37;2.37;;;;;;;-141.84;50.18;18990.81;5428887;26;20269;-59
2024/04/22 06:48:52;;;;;;;3.37;2.33;;;;;;;-141.84;50.09;18964.41;5429889;26;20287;-59
2024/04/22 06:51:23;;;;;;;4.00;2.30;;;;;;;-141.84;50.17;18952.22;5417797;26;20341;-59
2024/04/22 06:53:50;;;;;;;2.20;1.90;;;;;;;-141.84;50.37;18944.09;5420781;26;20257;-59
2024/04/22 06:56:21;;;;;;;3.07;2.40;;;;;;;-141.84;50.30;18921.75;5444216;26;20836;-59
2024/04/22 06:58:49;;;;;;;2.33;1.90;;;;;;;-141.84;50.50;18978.63;5421188;26;20251;-59
2024/04/22 07:01:20;;;;;;;3.17;2.33;;;;;;;-141.84;50.00;18968.47;5440809;26;20270;-59
2024/04/22 07:04:04;;;;;;;3.37;2.57;;;;;;;-141.84;49.40;18978.63;5413066;26;20332;-61
2024/04/22 07:06:35;;;;;;;3.37;2.30;;;;;;;-141.84;49.14;18970.50;5429950;26;20259;-61
2024/04/22 07:09:09;;;;;;;3.60;2.30;;;;;;;-141.84;49.54;18944.09;5424691;26;20366;-60
2024/04/22 07:11:40;;;;;;;2.93;2.17;;;;;;;-141.84;49.67;18964.41;5430936;26;20593;-60
2024/04/22 07:14:11;;;;;;;3.20;2.07;;;;;;;-141.84;49.36;18970.50;5429722;26;20365;-60
2024/04/22 07:16:41;;;;;;;4.37;2.30;;;;;;;-141.84;49.45;18978.63;5424622;26;20233;-61
2024/04/22 07:19:16;;;;;;;3.20;2.20;;;;;;;-141.84;49.85;18966.44;5425499;26;20792;-61
2024/04/22 07:21:45;;;;;;;3.40;2.23;;;;;;;-141.84;49.26;18984.72;5416308;26;20703;-58
2024/04/22 07:24:15;;;;;;;2.07;1.87;;;;;;;-141.84;48.60;18984.72;5438060;26;20255;-59
2024/04/22 07:26:44;;;;;;;4.00;2.30;;;;;;;-141.84;48.51;18970.50;5444783;26;20262;-60
2024/04/22 07:29:19;;;;;;;2.60;2.10;;;;;;;-141.84;48.43;18954.25;5447664;26;20295;-60
2024/04/22 07:31:48;;;;;;;2.47;1.97;;;;;;;-141.84;48.29;19025.38;5448210;26;20249;-60
2024/04/22 07:34:22;;;;;;;2.83;1.90;;;;;;;-141.84;48.33;18980.66;5447963;26;20230;-60
2024/04/22 07:37:00;;;;;;;3.67;1.73;;;;;;;-141.84;47.98;19029.44;5448590;26;20267;-61
2024/04/22 07:39:34;;;;;;;2.67;1.80;;;;;;;-141.84;47.29;19025.38;5448059;26;20350;-60
2024/04/22 07:42:02;;;;;;;3.00;1.70;;;;;;;-141.84;47.02;19015.19;5453656;26;20289;-60
2024/04/22 07:44:32;;;;;;;1.87;1.67;;;;;;;-141.84;47.81;18994.88;5447772;26;20253;-61
2024/04/22 07:47:00;;;;;;;2.13;1.93;;;;;;;-141.84;46.93;19000.97;5447559;26;20373;-59
2024/04/22 07:49:33;;;;;;;3.90;2.97;;;;;;;-141.84;48.01;19033.50;5447807;26;20304;-60
2024/04/22 07:52:01;;;;;;;2.97;2.67;;;;;;;-141.84;46.94;18990.81;5448513;26;20245;-61
2024/04/22 07:54:32;;;;;;;3.70;2.20;;;;;;;-141.84;46.41;19021.31;5458407;26;20259;-60
2024/04/22 07:57:01;;;;;;;2.10;1.73;;;;;;;-141.84;46.37;19029.44;5448337;26;20253;-59
2024/04/22 07:59:32;;;;;;;1.90;1.53;;;;;;;-141.84;45.90;19055.84;5448241;26;20261;-59
2024/04/22 08:02:00;;;;;;;2.47;1.70;;;;;;;-141.84;46.29;19086.31;5449051;26;20263;-61
2024/04/22 08:04:34;;;;;;;2.03;1.50;;;;;;;-141.84;45.13;19098.50;5448493;26;20280;-60
2024/04/22 08:07:04;;;;;;;3.07;1.50;;;;;;;-141.84;44.82;19053.81;5427625;26;20778;-58
2024/04/22 08:09:34;;;;;;;2.37;1.37;;;;;;;-141.84;45.09;19082.25;5451442;26;20253;-60
2024/04/22 08:12:02;;;;;;;2.43;1.70;;;;;;;-141.84;44.81;19068.03;5451482;26;20251;-59
2024/04/22 08:14:32;;;;;;;2.17;1.60;;;;;;;-141.84;45.46;19104.59;5451478;26;20280;-59
2024/04/22 08:17:00;;;;;;;1.67;1.57;;;;;;;-141.84;44.38;19090.38;5454314;26;20361;-59
2024/04/22 08:19:33;;;;;;;2.23;1.50;;;;;;;-141.84;43.97;19102.56;5451184;26;20368;-59
2024/04/22 08:22:01;;;;;;;1.97;1.60;;;;;;;-141.84;43.77;19120.88;5451759;26;20229;-59
2024/04/22 08:24:31;;;;;;;2.30;1.57;;;;;;;-141.84;42.66;19118.84;5451478;26;20369;-59
2024/04/22 08:27:00;;;;;;;1.77;1.33;;;;;;;-141.84;42.16;19157.44;5431429;26;20406;-58
2024/04/22 08:29:30;;;;;;;1.97;1.37;;;;;;;-141.84;42.03;19181.81;5435727;26;20367;-60
2024/04/22 08:31:58;;;;;;;3.00;1.70;;;;;;;-141.84;42.38;19194.03;5434516;26;20281;-59
2024/04/22 08:34:29;;;;;;;1.60;1.50;;;;;;;-141.84;42.49;19171.66;5435465;26;20230;-61
2024/04/22 08:36:59;;;;;;;2.53;1.40;;;;;;;-141.84;43.18;19165.56;5427907;26;20283;-63
2024/04/22 08:39:29;;;;;;;1.90;1.70;;;;;;;-141.84;43.47;19139.16;5423516;26;20262;-61
2024/04/22 08:41:59;;;;;;;1.90;1.57;;;;;;;-141.84;43.88;19110.72;5437531;26;20289;-60
2024/04/22 08:44:30;;;;;;;1.90;1.70;;;;;;;-141.84;44.02;19133.06;5427589;26;20351;-61
2024/04/22 08:46:57;;;;;;;1.90;1.67;;;;;;;-141.84;43.97;19153.38;5433074;26;20646;-61
2024/04/22 08:49:28;;;;;;;1.97;1.40;;;;;;;-141.84;43.05;19106.66;5428357;26;20246;-63
2024/04/22 08:51:58;;;;;;;1.93;1.73;;;;;;;-141.84;43.59;19131.03;5433339;26;20308;-62
2024/04/22 08:54:29;;;;;;;1.37;1.27;;;;;;;-141.84;43.30;19108.69;5424281;26;20339;-62
2024/04/22 08:56:57;;;;;;;2.50;1.70;;;;;;;-141.84;43.70;19133.06;5438324;26;20607;-61
2024/04/22 08:59:29;;;;;;;2.33;1.60;;;;;;;-141.84;43.00;19145.25;5432070;26;20266;-69
2024/04/22 09:02:07;;;;;;;2.67;1.67;;;;;;;-141.84;43.08;19141.19;5424857;26;20310;-69
2024/04/22 09:04:38;;;;;;;1.47;1.37;;;;;;;-141.84;42.26;19139.16;5422452;26;20251;-69
2024/04/22 09:07:17;;;;;;;1.60;1.50;;;6.70;99.90;;;-141.84;40.57;19183.84;5423425;26;20227;-70
2024/04/22 09:09:48;;;;;;;1.50;1.40;;;6.90;99.90;;;-141.84;39.96;19208.25;5383896;26;20266;-70
2024/04/22 09:12:36;;;;;;;1.70;1.50;;;6.80;99.90;;;-141.84;39.53;19246.84;5419459;26;20258;-69
2024/04/22 09:15:08;;;;;;;1.70;1.60;;;6.90;99.90;;;-141.84;39.82;19183.84;5420028;26;20254;-71
2024/04/22 09:17:36;;;;;;;1.73;1.60;;;6.90;99.90;;;-141.84;39.66;19230.59;5416428;26;20299;-73
2024/04/22 09:20:08;;;;;;;2.00;1.60;;;7.00;99.90;;;-141.84;39.03;19263.09;5434534;26;20291;-72
2024/04/22 09:22:38;;;;;;;1.90;1.67;;;7.20;99.90;;;-141.84;38.08;19346.44;5432223;26;20230;-72
2024/04/22 09:25:09;;;;;;;2.67;1.70;;;7.60;99.90;;;-141.84;37.26;19362.69;5431956;26;20238;-71
2024/04/22 09:27:38;;;;;;;1.60;1.50;;;8.00;99.90;;;-141.84;37.49;19362.69;5451733;26;20357;-71
2024/04/22 09:30:12;;;;;;;1.57;1.47;;;8.20;99.90;;;-141.84;37.93;19358.63;5450339;26;20371;-75
2024/04/22 09:32:44;;;;;;;3.10;1.80;;;8.20;99.90;;;-141.84;38.66;19346.44;5450346;26;20358;-74
2024/04/22 09:35:19;;;;;;;2.57;1.67;;;8.30;99.90;;;-141.84;38.27;19317.97;5449683;26;20634;-75
2024/04/22 09:37:50;;;;;;;2.33;1.80;;;8.20;99.90;;;-141.84;38.06;19378.94;5449632;26;20288;-71
2024/04/22 09:40:26;;;;;;;1.50;1.40;;;8.20;99.90;;;-141.84;38.43;19346.44;5450140;26;20268;-71
2024/04/22 09:42:54;;;;;;;3.57;1.77;;;8.20;99.90;;;-141.84;38.22;19374.88;5449864;26;20252;-71
2024/04/22 09:45:25;;;;;;;4.03;1.70;;;8.30;99.90;;;-141.84;37.86;19364.72;5449872;26;20326;-70
2024/04/22 09:47:54;;;;;;;1.90;1.80;;;8.20;99.90;;;-141.84;39.18;19311.88;5449225;26;20249;-70
2024/04/22 09:50:30;;;;;;;1.70;1.60;;;8.10;99.90;;;-141.84;38.77;19342.34;5450129;26;20296;-74
2024/04/22 09:53:03;;;;;;;1.60;1.50;;;8.00;99.90;;;-141.84;38.84;19358.63;5449392;26;20369;-73
2024/04/22 09:55:36;;;;;;;2.73;1.70;;;8.00;99.90;;;-141.84;39.33;19338.28;5438075;26;20267;-73
2024/04/22 09:58:09;;;;;;;3.13;1.90;;;;;;;-141.84;38.69;19358.63;5450162;26;20725;-74
2024/04/22 10:00:43;;;;;;;2.27;1.70;;;;;;;-141.84;38.14;19405.34;5435360;26;20261;-73
2024/04/22 10:03:13;;;;;;;2.10;1.70;;;;;;;-141.84;37.55;19423.66;5464600;26;20321;-81
2024/04/22 10:05:47;;;;;;;2.33;1.60;;;;;;;-141.84;37.81;19407.38;5451985;26;20631;-78
2024/04/22 10:08:20;;;;;;;1.93;1.70;;;8.70;99.90;;;-141.84;37.83;19385.03;5449798;26;20295;-73
2024/04/22 10:10:51;;;;;;;2.03;1.67;;;8.60;99.90;;;-141.84;37.34;19419.59;5450001;26;20338;-72
2024/04/22 10:13:25;;;;;;;1.73;1.63;;;8.60;99.90;;;-141.84;37.68;19370.81;5450736;26;20231;-73
2024/04/22 10:15:55;;;;;;;3.27;1.80;;;8.50;99.90;;;-141.84;37.79;19429.75;5449318;26;20830;-74
2024/04/22 10:18:22;;;;;;;1.53;1.43;;;8.50;99.90;;;-141.84;37.92;19413.47;5448028;26;20777;-72
2024/04/22 10:20:55;;;;;;;1.60;1.50;;;8.60;99.90;;;-141.84;36.86;19435.84;5448812;26;20272;-73
2024/04/22 10:23:26;;;;;;;2.67;1.40;;;8.80;99.90;;;-141.84;36.13;19448.03;5445071;26;20299;-74
2024/04/22 10:25:56;;;;;;;2.00;1.57;;;8.80;99.90;;;-141.84;36.08;19466.31;5446306;26;20705;-73
2024/04/22 10:28:23;;;;;;;2.47;1.73;;;8.80;99.90;;;-141.84;36.80;19462.25;5443067;26;20233;-75
2024/04/22 10:30:59;;;;;;;2.00;1.40;;;8.70;99.90;;;-141.84;37.29;19435.84;5455976;26;20246;-74
2024/04/22 10:33:26;;;;;;;1.63;1.53;;;8.80;99.90;;;-141.84;36.91;19490.72;5445517;26;20265;-73
2024/04/22 10:35:56;;;;;;;1.63;1.53;;;9.00;99.90;;;-141.84;36.88;19523.22;5450401;26;20632;-75
2024/04/22 10:38:26;;;;;;;3.17;1.67;;;9.30;99.90;;;-141.84;36.00;19537.44;5456495;26;20343;-71
2024/04/22 10:40:56;;;;;;;2.83;1.67;;;9.60;99.90;;;-141.84;36.08;19527.28;5447209;26;20595;-74
2024/04/22 10:43:24;;;;;;;2.13;1.60;;;9.60;99.90;;;-141.84;35.97;19500.88;5448573;26;20303;-74
2024/04/22 10:45:54;;;;;;;1.33;1.23;;;9.50;99.90;;;-141.84;36.32;19494.78;5446864;26;20238;-72
2024/04/22 10:48:23;;;;;;;1.50;1.40;;;9.30;99.90;;;-141.84;36.97;19484.59;5442070;26;20292;-72
2024/04/22 10:50:55;;;;;;;1.87;1.67;;;9.20;99.90;;;-141.84;36.29;19486.66;5448456;26;20770;-72
2024/04/22 10:53:22;;;;;;;1.97;1.70;;;9.20;99.90;;;-141.84;36.77;19448.03;5448850;26;20253;-73
2024/04/22 10:55:55;;;;;;;1.90;1.57;;;8.80;99.90;;;-141.84;37.70;19389.09;5448007;26;20261;-73
2024/04/22 10:58:24;;;;;;;1.53;1.43;;;8.40;99.90;;;-141.84;37.68;19383.00;5446116;26;20339;-71
2024/04/22 11:00:55;;;;;;;2.43;2.00;;;8.30;99.90;;;-141.84;37.95;19397.22;5447557;26;20237;-71
2024/04/22 11:03:25;;;;;;;1.87;1.70;;;8.20;99.90;;;-141.84;38.46;19315.94;5449155;26;20257;-71
2024/04/22 11:06:02;;;;;;;1.47;1.33;;;7.90;99.90;;;-141.84;39.17;19313.91;5448994;26;20883;-70
2024/04/22 11:08:30;;;;;;;1.47;1.37;;;7.70;99.90;;;-141.84;39.43;19317.97;5449774;26;20307;-72
2024/04/22 11:11:05;;;;;;;1.87;1.57;;;;;;;-141.84;39.13;19311.88;5449392;26;20253;-71
2024/04/22 11:13:34;;;;;;;2.53;1.43;;;;;;;-141.84;39.19;19281.41;5449138;26;20240;-71
2024/04/22 11:16:11;;;;;;;1.70;1.60;;;7.50;99.90;;;-141.84;39.33;19313.91;5447411;26;20272;-72
2024/04/22 11:18:39;;;;;;;2.60;1.60;;;7.50;99.90;;;-141.84;39.28;19317.97;5444281;26;20256;-73
2024/04/22 11:21:09;;;;;;;1.50;1.40;;;7.50;99.90;;;-141.84;39.05;19305.78;5434119;26;20261;-67
2024/04/22 11:23:36;;;;;;;2.00;1.60;;;7.70;99.90;;;-141.84;38.70;19372.84;5441707;26;20245;-67
2024/04/22 11:26:10;;;;;;;1.80;1.70;;;7.90;99.90;;;-141.84;38.27;19403.31;5443251;26;20357;-71
2024/04/22 11:28:37;;;;;;;1.80;1.47;;;8.20;99.90;;;-141.84;37.98;19407.38;5450080;26;20326;-76